Time;durP1;ratioP1;P1;durP2;ratioP2;P2;SDS_P1;SDS_P2;PMS_P1;PMS_P2;Temp;Humidity;BMP_temperature;BMP_pressure;BME280_temperature;BME280_humidity;BME280_pressure;Samples;Min_cycle;Max_cycle;Signal;HPM_P1;HPM_P2
2023/11/26 00:02:23;;;;;;;4.37;1.43;;;;;;;;;;5016693;28;20473;-82
2023/11/26 00:04:49;;;;;;;3.90;1.30;;;;;;;;;;4995136;28;20450;-82
2023/11/26 00:07:15;;;;;;;2.20;0.80;;;;;;;;;;5035530;28;20985;-81
2023/11/26 00:09:41;;;;;;;2.23;1.30;;;;;;;;;;5035393;28;20407;-81
2023/11/26 00:12:07;;;;;;;7.93;2.00;;;;;;;;;;5050788;28;20487;-81
2023/11/26 00:14:33;;;;;;;6.20;1.50;;;;;;;;;;5035361;28;20406;-80
2023/11/26 00:16:59;;;;;;;2.30;1.13;;;;;;;;;;5035280;28;20417;-81
2023/11/26 00:19:27;;;;;;;4.23;1.53;;;;;;;;;;5034168;28;20409;-81
2023/11/26 00:21:52;;;;;;;4.00;1.40;;;;;;;;;;5035194;28;20475;-81
2023/11/26 00:24:18;;;;;;;1.90;1.37;;;;;;;;;;5050562;28;20409;-81
2023/11/26 00:26:44;;;;;;;3.10;1.30;;;;;;;;;;5035195;28;20421;-81
2023/11/26 00:29:10;;;;;;;3.43;1.10;;;;;;;;;;5035219;28;20409;-81
2023/11/26 00:31:37;;;;;;;2.73;1.00;;;;;;;;;;5034827;28;20883;-81
2023/11/26 00:34:03;;;;;;;6.50;1.70;;;;;;;;;;5034754;28;20410;-82
2023/11/26 00:36:29;;;;;;;2.33;0.70;;;;;;;;;;5035041;28;20500;-81
2023/11/26 00:38:55;;;;;;;2.70;1.40;;;;;;;;;;5035051;28;20412;-81
2023/11/26 00:41:20;;;;;;;3.20;1.87;;;;;;;;;;5050187;28;20504;-81
2023/11/26 00:43:47;;;;;;;2.23;1.27;;;;;;;;;;5034887;28;20411;-81
2023/11/26 00:46:13;;;;;;;4.27;1.07;;;;;;;;;;5030479;28;20863;-81
2023/11/26 00:48:39;;;;;;;6.33;1.47;;;;;;;;;;5013439;28;20509;-81
2023/11/26 00:51:05;;;;;;;2.67;1.30;;;;;;;;;;5015033;28;20481;-81
2023/11/26 00:53:32;;;;;;;2.53;1.10;;;;;;;;;;5014936;28;20421;-81
2023/11/26 00:55:58;;;;;;;3.50;1.20;;;;;;;;;;5014619;28;20463;-81
2023/11/26 00:58:24;;;;;;;3.13;1.00;;;;;;;;;;5014754;28;20795;-81
2023/11/26 01:00:49;;;;;;;2.17;1.10;;;;;;;;;;5014736;28;20514;-81
2023/11/26 01:03:15;;;;;;;2.67;1.27;;;;;;;;;;5014170;28;20538;-81
2023/11/26 01:05:41;;;;;;;2.37;1.47;;;;;;;;;;4974358;28;20789;-81
2023/11/26 01:08:07;;;;;;;2.20;0.50;;;;;;;;;;5029869;28;20426;-81
2023/11/26 01:10:33;;;;;;;4.10;1.60;;;;;;;;;;5014676;28;20452;-81
2023/11/26 01:12:59;;;;;;;2.70;1.27;;;;;;;;;;5014388;28;20463;-81
2023/11/26 01:15:25;;;;;;;3.60;1.23;;;;;;;;;;5014396;28;20416;-81
2023/11/26 01:17:51;;;;;;;2.70;1.00;;;;;;;;;;5014176;28;20900;-82
2023/11/26 01:20:17;;;;;;;2.57;1.03;;;;;;;;;;5014495;28;20415;-81
2023/11/26 01:22:43;;;;;;;4.57;1.57;;;;;;;;;;5014013;28;20596;-82
2023/11/26 01:25:09;;;;;;;3.80;1.27;;;;;;;;;;5014378;28;20493;-82
2023/11/26 01:27:35;;;;;;;3.47;1.20;;;;;;;;;;5014235;28;20407;-82
2023/11/26 01:30:01;;;;;;;5.23;1.97;;;;;;;;;;5013133;28;20414;-81
2023/11/26 01:32:31;;;;;;;4.03;1.40;;;;;;;;;;5013989;28;20443;-81
2023/11/26 01:34:57;;;;;;;3.03;1.33;;;;;;;;;;5014313;28;20484;-81
2023/11/26 01:37:23;;;;;;;1.53;0.73;;;;;;;;;;5014290;28;20421;-80
2023/11/26 01:39:49;;;;;;;5.63;1.60;;;;;;;;;;5014342;28;20413;-83
2023/11/26 01:42:15;;;;;;;2.00;1.40;;;;;;;;;;5012924;28;21008;-83
2023/11/26 01:44:41;;;;;;;3.20;1.10;;;;;;;;;;5014189;28;20501;-82
2023/11/26 01:47:08;;;;;;;2.77;1.57;;;;;;;;;;5013779;28;20501;-80
2023/11/26 01:49:35;;;;;;;2.63;0.67;;;;;;;;;;5013954;28;20469;-79
2023/11/26 01:52:01;;;;;;;3.30;1.13;;;;;;;;;;5013973;28;20422;-79
2023/11/26 01:54:31;;;;;;;6.13;1.40;;;;;;;;;;5012750;28;20410;-79
2023/11/26 01:56:58;;;;;;;1.90;1.40;;;;;;;;;;5013850;28;20421;-79
2023/11/26 01:59:24;;;;;;;2.50;0.80;;;;;;;;;;5013839;28;20456;-79
2023/11/26 02:01:49;;;;;;;4.47;1.40;;;;;;;;;;5013777;28;21026;-80
2023/11/26 02:04:15;;;;;;;2.70;0.87;;;;;;;;;;5013454;28;20497;-82
2023/11/26 02:06:41;;;;;;;2.60;1.60;;;;;;;;;;5012525;28;20484;-80
2023/11/26 02:09:08;;;;;;;1.90;1.17;;;;;;;;;;5013656;28;20406;-80
2023/11/26 02:11:34;;;;;;;3.70;1.13;;;;;;;;;;5013574;28;20420;-80
2023/11/26 02:14:00;;;;;;;4.23;1.33;;;;;;;;;;5013638;28;20406;-79
2023/11/26 02:16:26;;;;;;;2.77;0.73;;;;;;;;;;5012201;28;20549;-80
2023/11/26 02:18:52;;;;;;;3.30;1.47;;;;;;;;;;5012890;28;20421;-80
2023/11/26 02:21:17;;;;;;;1.93;1.20;;;;;;;;;;5012517;28;20461;-79
2023/11/26 02:23:45;;;;;;;1.80;1.20;;;;;;;;;;5011015;28;20492;-80
2023/11/26 02:26:11;;;;;;;2.00;1.37;;;;;;;;;;5013213;28;20781;-80
2023/11/26 02:28:37;;;;;;;2.97;0.70;;;;;;;;;;5013495;28;20500;-79
2023/11/26 02:31:04;;;;;;;1.70;1.53;;;;;;;;;;5013302;28;20473;-79
2023/11/26 02:33:30;;;;;;;3.20;1.03;;;;;;;;;;5012945;28;20407;-79
2023/11/26 02:35:56;;;;;;;1.77;0.90;;;;;;;;;;5013201;28;20421;-79
2023/11/26 02:38:22;;;;;;;2.80;1.30;;;;;;;;;;5012893;28;20429;-79
2023/11/26 02:40:48;;;;;;;4.33;1.20;;;;;;;;;;5005356;28;20788;-80
2023/11/26 02:43:15;;;;;;;2.50;1.30;;;;;;;;;;5006208;28;20433;-80
2023/11/26 02:45:41;;;;;;;2.30;1.00;;;;;;;;;;4993559;28;20418;-80
2023/11/26 02:48:08;;;;;;;3.20;1.70;;;;;;;;;;5005915;28;20785;-78
2023/11/26 02:50:34;;;;;;;3.53;1.33;;;;;;;;;;5012991;28;20841;-81
2023/11/26 02:53:00;;;;;;;4.80;1.67;;;;;;;;;;5012683;28;20422;-80
2023/11/26 02:55:26;;;;;;;4.07;2.27;;;;;;;;;;5012694;28;20437;-79
2023/11/26 02:57:52;;;;;;;3.43;1.40;;;;;;;;;;5012972;28;20424;-82
2023/11/26 03:00:20;;;;;;;2.60;1.30;;;;;;;;;;5012845;28;20413;-80
2023/11/26 03:02:46;;;;;;;3.40;1.70;;;;;;;;;;5012579;28;20464;-80
2023/11/26 03:05:19;;;;;;;3.60;1.37;;;;;;;;;;4986765;28;20422;-80
2023/11/26 03:07:46;;;;;;;3.33;1.27;;;;;;;;;;5005836;28;20426;-79
2023/11/26 03:15:53;;;;;;;2.13;1.53;;;;;;;;;;5007997;28;20418;-80
2023/11/26 03:18:19;;;;;;;2.93;1.13;;;;;;;;;;5012386;28;20460;-80
2023/11/26 03:20:45;;;;;;;3.10;1.23;;;;;;;;;;5012773;28;20426;-83
2023/11/26 03:23:13;;;;;;;2.53;1.20;;;;;;;;;;5012852;28;20421;-82
2023/11/26 03:25:39;;;;;;;3.00;1.67;;;;;;;;;;5011462;28;20453;-81
2023/11/26 03:28:05;;;;;;;1.90;1.20;;;;;;;;;;5012700;28;20439;-82
2023/11/26 03:30:32;;;;;;;3.77;1.47;;;;;;;;;;5012636;28;20790;-80
2023/11/26 03:32:59;;;;;;;2.93;1.00;;;;;;;;;;5012387;28;20429;-82
2023/11/26 03:35:26;;;;;;;2.33;1.70;;;;;;;;;;5011355;28;20520;-81
2023/11/26 03:37:53;;;;;;;1.83;1.73;;;;;;;;;;5012617;28;20413;-80
2023/11/26 03:40:19;;;;;;;2.90;1.80;;;;;;;;;;5012582;28;20427;-80
2023/11/26 03:42:46;;;;;;;3.27;1.23;;;;;;;;;;5012607;28;20476;-80
2023/11/26 03:45:12;;;;;;;1.70;0.90;;;;;;;;;;5012616;28;20428;-80
2023/11/26 03:47:38;;;;;;;2.17;1.50;;;;;;;;;;5012172;28;20414;-81
2023/11/26 03:50:08;;;;;;;2.47;1.63;;;;;;;;;;5012509;28;20405;-80
2023/11/26 03:52:34;;;;;;;4.30;1.63;;;;;;;;;;5011254;28;20418;-80
2023/11/26 03:55:00;;;;;;;4.83;1.27;;;;;;;;;;5015957;28;20416;-80
2023/11/26 03:57:26;;;;;;;3.27;1.57;;;;;;;;;;5014679;28;20928;-81
2023/11/26 03:59:52;;;;;;;3.70;1.77;;;;;;;;;;5015773;28;20475;-79
2023/11/26 04:02:18;;;;;;;3.90;1.70;;;;;;;;;;5015666;28;20501;-81
2023/11/26 04:04:44;;;;;;;8.23;2.00;;;;;;;;;;5015975;28;20773;-81
2023/11/26 04:07:11;;;;;;;2.50;1.83;;;;;;;;;;5015895;28;20454;-79
2023/11/26 04:09:37;;;;;;;5.00;1.63;;;;;;;;;;5015881;28;20456;-79
2023/11/26 04:12:03;;;;;;;2.20;1.03;;;;;;;;;;5014558;28;20465;-79
2023/11/26 04:14:33;;;;;;;3.43;1.30;;;;;;;;;;5015920;28;20421;-79
2023/11/26 04:16:59;;;;;;;2.67;1.50;;;;;;;;;;5015431;28;20414;-81
2023/11/26 04:19:25;;;;;;;4.90;1.10;;;;;;;;;;5015587;28;20414;-82
2023/11/26 04:21:51;;;;;;;5.03;1.63;;;;;;;;;;5015690;28;20548;-80
2023/11/26 04:24:18;;;;;;;3.87;1.23;;;;;;;;;;5015705;28;20909;-79
2023/11/26 04:26:44;;;;;;;2.00;1.30;;;;;;;;;;5015663;28;20418;-79
2023/11/26 04:29:10;;;;;;;3.83;2.13;;;;;;;;;;5015571;28;20546;-79
2023/11/26 04:31:36;;;;;;;2.37;2.00;;;;;;;;;;5014841;28;20514;-79
2023/11/26 04:34:04;;;;;;;3.50;2.13;;;;;;;;;;5015407;28;20410;-79
2023/11/26 04:36:31;;;;;;;4.00;2.23;;;;;;;;;;5015175;28;20414;-79
2023/11/26 04:38:57;;;;;;;3.27;2.10;;;;;;;;;;5015423;28;20926;-78
2023/11/26 04:41:23;;;;;;;3.17;1.87;;;;;;;;;;5015159;28;20468;-80
2023/11/26 04:43:49;;;;;;;4.80;1.50;;;;;;;;;;5015267;28;20421;-80
2023/11/26 04:46:15;;;;;;;2.40;1.50;;;;;;;;;;5015250;28;20508;-80
2023/11/26 04:48:42;;;;;;;3.60;1.40;;;;;;;;;;5014923;28;20418;-79
2023/11/26 04:51:08;;;;;;;3.00;1.53;;;;;;;;;;5014881;28;20453;-80
2023/11/26 04:53:34;;;;;;;2.80;1.27;;;;;;;;;;5014999;28;20473;-81
2023/11/26 04:56:00;;;;;;;5.13;1.57;;;;;;;;;;5014773;28;20417;-79
2023/11/26 04:58:26;;;;;;;1.37;1.27;;;;;;;;;;5015000;28;20421;-81
2023/11/26 05:00:52;;;;;;;2.60;1.70;;;;;;;;;;5014908;28;20445;-79
2023/11/26 05:03:24;;;;;;;3.60;2.60;;;;;;;;;;5014508;28;20423;-79
2023/11/26 05:05:50;;;;;;;5.83;2.53;;;;;;;;;;5014755;28;20480;-79
2023/11/26 05:08:16;;;;;;;5.57;2.47;;;;;;;;;;5014210;28;20416;-79
2023/11/26 05:10:42;;;;;;;3.97;1.37;;;;;;;;;;5013140;28;20965;-80
2023/11/26 05:13:09;;;;;;;2.10;1.63;;;;;;;;;;5014784;28;20421;-80
2023/11/26 05:15:35;;;;;;;3.20;1.93;;;;;;;;;;5013409;28;20464;-80
2023/11/26 05:18:00;;;;;;;2.53;1.43;;;;;;;;;;5014295;28;20442;-79
2023/11/26 05:20:26;;;;;;;3.10;1.50;;;;;;;;;;5014670;28;20417;-80
2023/11/26 05:22:54;;;;;;;5.97;2.03;;;;;;;;;;5014515;28;20823;-80
2023/11/26 05:25:20;;;;;;;2.40;1.57;;;;;;;;;;5014397;28;20410;-79
2023/11/26 05:27:46;;;;;;;3.10;1.33;;;;;;;;;;5014425;28;20454;-80
2023/11/26 05:30:13;;;;;;;4.50;1.67;;;;;;;;;;5014256;28;20471;-79
2023/11/26 05:32:38;;;;;;;3.90;1.93;;;;;;;;;;5014116;28;20418;-80
2023/11/26 05:35:12;;;;;;;5.80;1.63;;;;;;;;;;5014345;28;20416;-80
2023/11/26 05:37:39;;;;;;;2.23;1.90;;;;;;;;;;5014263;28;20911;-79
2023/11/26 05:40:06;;;;;;;2.53;1.97;;;;;;;;;;5014180;28;20402;-81
2023/11/26 05:42:32;;;;;;;3.30;1.73;;;;;;;;;;5014204;28;20481;-81
2023/11/26 05:44:58;;;;;;;3.50;1.93;;;;;;;;;;5014149;28;20756;-80
2023/11/26 05:47:25;;;;;;;5.27;2.33;;;;;;;;;;5013681;28;20423;-81
2023/11/26 05:49:52;;;;;;;2.53;2.00;;;;;;;;;;5013257;28;20451;-80
2023/11/26 05:52:18;;;;;;;2.50;1.97;;;;;;;;;;5014357;28;20406;-79
2023/11/26 05:54:44;;;;;;;1.93;1.30;;;;;;;;;;5014302;28;20408;-80
2023/11/26 05:57:10;;;;;;;3.20;1.67;;;;;;;;;;5012732;28;20945;-81
2023/11/26 05:59:39;;;;;;;2.50;1.83;;;;;;;;;;5014126;28;20417;-80
2023/11/26 06:02:06;;;;;;;2.90;1.83;;;;;;;;;;5013655;28;20473;-81
2023/11/26 06:04:32;;;;;;;3.27;1.50;;;;;;;;;;5014074;28;20442;-82
2023/11/26 06:06:57;;;;;;;3.90;1.93;;;;;;;;;;5014062;28;20507;-81
2023/11/26 06:09:23;;;;;;;4.60;2.20;;;;;;;;;;5012626;28;20529;-80
2023/11/26 06:11:49;;;;;;;2.20;1.80;;;;;;;;;;5016309;28;20451;-81
2023/11/26 06:14:16;;;;;;;3.80;2.07;;;;;;;;;;5022264;28;20776;-82
2023/11/26 06:16:42;;;;;;;1.70;1.43;;;;;;;;;;5019425;28;20426;-82
2023/11/26 06:19:08;;;;;;;2.77;1.67;;;;;;;;;;5024108;28;20397;-83
2023/11/26 06:21:34;;;;;;;3.80;2.30;;;;;;;;;;5022451;28;20458;-80
2023/11/26 06:24:00;;;;;;;5.20;2.07;;;;;;;;;;5021531;28;20492;-85
2023/11/26 06:26:27;;;;;;;4.60;3.40;;;;;;;;;;5022391;28;20417;-84
2023/11/26 06:28:53;;;;;;;4.57;2.47;;;;;;;;;;5020108;28;20402;-83
2023/11/26 06:31:22;;;;;;;3.90;2.00;;;;;;;;;;5024987;28;20461;-84
2023/11/26 06:33:48;;;;;;;3.73;2.60;;;;;;;;;;5021931;28;20499;-86
2023/11/26 06:36:18;;;;;;;4.40;3.17;;;;;;;;;;5021864;28;20413;-86
2023/11/26 06:38:44;;;;;;;3.97;3.40;;;;;;;;;;5022022;28;20463;-85
2023/11/26 06:41:11;;;;;;;5.20;2.83;;;;;;;;;;5023146;28;20462;-85
2023/11/26 06:43:37;;;;;;;4.00;2.13;;;;;;;;;;5014136;28;20518;-83
2023/11/26 06:46:03;;;;;;;3.00;1.80;;;;;;;;;;5013421;28;20416;-82
2023/11/26 06:48:29;;;;;;;5.57;1.53;;;;;;;;;;5013256;28;20886;-82
2023/11/26 06:50:55;;;;;;;3.73;2.90;;;;;;;;;;5013425;28;20491;-82
2023/11/26 06:53:21;;;;;;;3.80;1.77;;;;;;;;;;5012193;28;20425;-82
2023/11/26 06:55:46;;;;;;;4.43;2.13;;;;;;;;;;5013375;28;20398;-82
2023/11/26 06:58:12;;;;;;;4.10;2.70;;;;;;;;;;5013211;28;20922;-82
2023/11/26 07:00:38;;;;;;;5.63;2.30;;;;;;;;;;5012110;28;20410;-82
2023/11/26 07:03:04;;;;;;;4.50;2.00;;;;;;;;;;5013196;28;20569;-83
2023/11/26 07:05:30;;;;;;;3.33;3.03;;;;;;;;;;4997733;28;20770;-82
2023/11/26 07:07:56;;;;;;;6.33;3.13;;;;;;;;;;4988001;28;20523;-83
2023/11/26 07:10:22;;;;;;;4.90;2.83;;;;;;;;;;5013134;28;20446;-80
2023/11/26 07:12:48;;;;;;;6.13;2.90;;;;;;;;;;5013157;28;20525;-79
2023/11/26 07:15:14;;;;;;;7.07;2.70;;;;;;;;;;5013181;28;20439;-80
2023/11/26 07:17:40;;;;;;;7.87;3.63;;;;;;;;;;5012768;28;20418;-80
2023/11/26 07:20:09;;;;;;;5.27;3.57;;;;;;;;;;5013151;28;20504;-80
2023/11/26 07:22:35;;;;;;;5.60;3.20;;;;;;;;;;5011885;28;21015;-81
2023/11/26 07:25:02;;;;;;;3.40;2.30;;;;;;;;;;5013081;28;20490;-80
2023/11/26 07:27:27;;;;;;;2.70;2.50;;;;;;;;;;5013080;28;20424;-80
2023/11/26 07:29:53;;;;;;;3.83;2.20;;;;;;;;;;5015355;28;20428;-80
2023/11/26 07:32:20;;;;;;;3.80;2.20;;;;;;;;;;5016502;28;20843;-78
2023/11/26 07:34:46;;;;;;;2.93;2.63;;;;;;;;;;5017007;28;20422;-79
2023/11/26 07:37:12;;;;;;;5.60;3.30;;;;;;;;;;5016732;28;20518;-79
2023/11/26 07:39:38;;;;;;;3.70;2.83;;;;;;;;;;5016796;28;20474;-79
2023/11/26 07:42:04;;;;;;;5.73;2.57;;;;;;;;;;5015428;28;21001;-78
2023/11/26 07:44:31;;;;;;;5.40;3.27;;;;;;;;;;5016793;28;20405;-79
2023/11/26 07:46:57;;;;;;;2.40;2.17;;;;;;;;;;5016411;28;20476;-79
2023/11/26 07:49:23;;;;;;;2.60;2.33;;;;;;;;;;5016647;28;20400;-81
2023/11/26 07:51:49;;;;;;;4.00;2.00;;;;;;;;;;5016566;28;20417;-80
2023/11/26 07:54:16;;;;;;;2.53;2.07;;;;;;;;;;5016516;28;20404;-78
2023/11/26 07:56:42;;;;;;;4.67;3.00;;;;;;;;;;5016569;28;20413;-83
2023/11/26 07:59:08;;;;;;;3.43;3.07;;;;;;;;;;5016426;28;20840;-82
2023/11/26 08:01:34;;;;;;;4.40;3.00;;;;;;;;;;5014691;28;20485;-84
2023/11/26 08:04:00;;;;;;;5.00;2.67;;;;;;;;;;5016341;28;20410;-83
2023/11/26 08:06:26;;;;;;;3.93;3.20;;;;;;;;;;4980603;28;20971;-82
2023/11/26 08:08:53;;;;;;;4.50;3.93;;;;;;;;;;5035966;28;20427;-82
2023/11/26 08:11:20;;;;;;;4.03;3.10;;;;;;;;;;5051414;28;20416;-82
2023/11/26 08:13:46;;;;;;;4.67;3.30;;;;;;;;;;5051413;28;20463;-82
2023/11/26 08:16:13;;;;;;;7.53;4.60;;;;;;;;;;5035541;28;20487;-82
2023/11/26 08:18:42;;;;;;;6.97;4.50;;;;;;;;;;5035760;28;20415;-82
2023/11/26 08:21:08;;;;;;;42.67;33.63;;;;;;;;;;5050989;28;20418;-82
2023/11/26 08:23:50;;;;;;;52.20;40.70;;;;;;;;;;5035738;28;20760;-82
2023/11/26 08:26:16;;;;;;;28.90;24.20;;;;;;;;;;5035757;28;20409;-82
2023/11/26 08:28:43;;;;;;;6.57;4.50;;;;;;;;;;5035569;28;20413;-82
2023/11/26 08:31:10;;;;;;;4.00;3.30;;;;;;;;;;5035195;28;20477;-81
2023/11/26 08:33:41;;;;;;;4.77;3.27;;;;;;;;;;5035692;28;20482;-82
2023/11/26 08:36:08;;;;;;;6.37;4.70;;;;;;;;;;5035852;28;20827;-82
2023/11/26 08:38:38;;;;;;;5.27;3.53;;;;;;;;;;5034952;28;20480;-82
2023/11/26 08:41:06;;;;;;;4.37;3.53;;;;;;;;;;5050658;28;20413;-82
2023/11/26 08:43:35;;;;;;;10.87;6.23;;;;;;;;;;5050826;28;20842;-82
2023/11/26 08:46:03;;;;;;;11.93;8.00;;;;;;;;;;5034890;28;20424;-82
2023/11/26 08:48:30;;;;;;;8.97;6.87;;;;;;;;;;5035223;28;20462;-82
2023/11/26 08:50:56;;;;;;;8.30;6.27;;;;;;;;;;5035302;28;20763;-82
2023/11/26 08:53:23;;;;;;;5.43;4.10;;;;;;;;;;5050579;28;20420;-82
2023/11/26 08:55:49;;;;;;;7.27;4.73;;;;;;;;;;5035239;28;20410;-82
2023/11/26 08:58:15;;;;;;;8.93;7.30;;;;;;;;;;5035026;28;20919;-82
2023/11/26 09:00:41;;;;;;;9.97;5.57;;;;;;;;;;5034841;28;20419;-81
2023/11/26 09:03:07;;;;;;;5.53;3.50;;;;;;;;;;5035006;28;20477;-82
2023/11/26 09:05:33;;;;;;;6.40;4.70;;;;;;;;;;5050328;28;20440;-82
2023/11/26 09:07:59;;;;;;;7.30;4.87;;;;;;;;;;5035002;28;20449;-82
2023/11/26 09:10:25;;;;;;;10.40;7.40;;;;;;;;;;5025156;28;20824;-82
2023/11/26 09:12:51;;;;;;;6.03;4.10;;;;;;;;;;5015028;28;20440;-82
2023/11/26 09:15:17;;;;;;;6.80;3.80;;;;;;;;;;5014970;28;20410;-83
2023/11/26 09:17:43;;;;;;;8.70;4.90;;;;;;;;;;5014663;28;20427;-83
2023/11/26 09:20:12;;;;;;;6.13;5.20;;;;;;;;;;5014911;28;20428;-83
2023/11/26 09:22:40;;;;;;;7.07;4.90;;;;;;;;;;5014857;28;20467;-83
2023/11/26 09:25:08;;;;;;;6.95;4.70;;;;;;;;;;5014532;28;20899;-83
2023/11/26 09:27:34;;;;;;;8.30;5.23;;;;;;;;;;5010800;28;20286;-82
2023/11/26 09:30:00;;;;;;;10.07;4.90;;;;;;;;;;5013361;28;20925;-81
2023/11/26 09:32:26;;;;;;;12.63;4.37;;;;;;;;;;5023968;28;20978;-82
2023/11/26 09:34:53;;;;;;;5.00;3.53;;;;;;;;;;5033138;28;20413;-82
2023/11/26 09:37:19;;;;;;;5.20;3.60;;;;;;;;;;5032681;28;20425;-83
2023/11/26 09:39:45;;;;;;;4.40;3.57;;;;;;;;;;5034057;28;20810;-82
2023/11/26 09:42:24;;;;;;;7.03;3.80;;;;;;;;;;5032413;28;20479;-83
2023/11/26 09:44:50;;;;;;;7.37;4.93;;;;;;;;;;5033986;28;20407;-83
2023/11/26 09:47:17;;;;;;;7.10;4.97;;;;;;;;;;5033662;28;20417;-82
2023/11/26 09:49:43;;;;;;;8.93;4.90;;;;;;;;;;5034012;28;20417;-83
2023/11/26 09:52:09;;;;;;;6.53;5.00;;;;;;;;;;5032987;28;20420;-83
2023/11/26 09:54:36;;;;;;;7.40;5.40;;;;;;;;;;5033863;28;20746;-82
2023/11/26 09:57:03;;;;;;;5.50;4.30;;;;;;;;;;5033744;28;20422;-82
2023/11/26 09:59:28;;;;;;;9.33;5.10;;;;;;;;;;5032615;28;20505;-82
2023/11/26 10:01:54;;;;;;;8.73;5.27;;;;;;;;;;5033346;28;20561;-82
2023/11/26 10:04:21;;;;;;;7.00;5.10;;;;;;;;;;5033684;28;20763;-82
2023/11/26 10:06:51;;;;;;;6.40;5.03;;;;;;;;;;5033586;28;20426;-83
2023/11/26 10:09:17;;;;;;;8.40;6.17;;;;;;;;;;5033187;28;20405;-83
2023/11/26 10:11:44;;;;;;;7.03;4.40;;;;;;;;;;5032414;28;20481;-83
2023/11/26 10:14:20;;;;;;;7.80;5.70;;;;;;;;;;5033089;28;20506;-82
2023/11/26 10:16:46;;;;;;;8.43;5.37;;;;;;;;;;5032917;28;20430;-82
2023/11/26 10:19:23;;;;;;;6.87;4.00;;;;;;;;;;5032041;28;20415;-83
2023/11/26 10:21:56;;;;;;;6.27;4.00;;;;;;;;;;5029868;28;20556;-83
2023/11/26 10:24:23;;;;;;;8.00;5.03;;;;;;;;;;5025117;28;20425;-82
2023/11/26 10:26:52;;;;;;;6.37;4.00;;;;;;;;;;5013317;28;20518;-82
2023/11/26 10:29:20;;;;;;;8.83;5.17;;;;;;;;;;5021329;28;20412;-83
2023/11/26 10:32:04;;;;;;;7.50;4.00;;;;;;;;;;5019420;28;20460;-82
2023/11/26 10:34:34;;;;;;;5.70;4.47;;;;;;;;;;5021530;28;20729;-82
2023/11/26 10:37:00;;;;;;;8.10;4.87;;;;;;;;;;5021767;28;20408;-83
2023/11/26 10:39:26;;;;;;;6.67;4.00;;;;;;;;;;5022023;28;20822;-83
2023/11/26 10:41:53;;;;;;;6.03;3.37;;;;;;;;;;5021125;28;20486;-82
2023/11/26 10:44:20;;;;;;;5.83;3.50;;;;;;;;;;5023689;28;20497;-82
2023/11/26 10:46:48;;;;;;;11.93;4.93;;;;;;;;;;5017179;28;20508;-82
2023/11/26 10:49:16;;;;;;;5.17;3.80;;;;;;;;;;5021848;28;20421;-82
2023/11/26 10:51:59;;;;;;;7.50;3.63;;;;;;;;;;5021204;28;20428;-82
2023/11/26 10:54:41;;;;;;;7.63;3.93;;;;;;;;;;5019998;28;20409;-82
2023/11/26 10:57:13;;;;;;;7.97;4.03;;;;;;;;;;5017350;28;20422;-83
2023/11/26 10:59:44;;;;;;;7.77;4.70;;;;;;;;;;5021860;28;20751;-81
2023/11/26 11:02:13;;;;;;;6.30;4.17;;;;;;;;;;5022300;28;20469;-82
2023/11/26 11:04:40;;;;;;;7.37;3.80;;;;;;;;;;5021019;28;20429;-82
2023/11/26 11:07:07;;;;;;;6.70;3.80;;;;;;;;;;5023264;28;20410;-83
2023/11/26 11:09:39;;;;;;;6.67;4.53;;;;;;;;;;5026010;28;20923;-82
2023/11/26 11:12:07;;;;;;;6.07;5.17;;;;;;;;;;5019547;28;20410;-82
2023/11/26 11:14:33;;;;;;;5.20;3.63;;;;;;;;;;5020974;28;20506;-83
2023/11/26 11:16:59;;;;;;;6.40;4.20;;;;;;;;;;5014815;28;20524;-82
2023/11/26 11:19:44;;;;;;;4.70;3.20;;;;;;;;;;4998962;28;21053;-82
2023/11/26 11:22:10;;;;;;;5.70;3.70;;;;;;;;;;4993544;28;20875;-82
2023/11/26 11:24:36;;;;;;;6.23;4.20;;;;;;;;;;4993458;28;20403;-82
2023/11/26 11:27:02;;;;;;;5.40;3.77;;;;;;;;;;4993353;28;20481;-82
2023/11/26 11:29:32;;;;;;;10.70;5.00;;;;;;;;;;4993522;28;20447;-82
2023/11/26 11:32:01;;;;;;;5.23;4.13;;;;;;;;;;4992757;28;20506;-82
2023/11/26 11:34:30;;;;;;;8.37;4.40;;;;;;;;;;4993366;28;20472;-81
2023/11/26 11:36:58;;;;;;;4.93;3.50;;;;;;;;;;5018329;28;20920;-82
2023/11/26 11:39:25;;;;;;;5.60;3.47;;;;;;;;;;5018733;28;20431;-83
2023/11/26 11:41:57;;;;;;;8.27;4.57;;;;;;;;;;5021522;28;20461;-83
2023/11/26 11:44:33;;;;;;;8.50;3.70;;;;;;;;;;5019659;28;20418;-82
2023/11/26 11:47:00;;;;;;;6.80;4.60;;;;;;;;;;5015592;28;20404;-83
2023/11/26 11:49:31;;;;;;;7.17;5.10;;;;;;;;;;5010243;28;20444;-83
2023/11/26 11:51:57;;;;;;;5.80;4.27;;;;;;;;;;5005302;28;20911;-82
2023/11/26 11:54:30;;;;;;;8.63;5.50;;;;;;;;;;5027444;28;20427;-83
2023/11/26 11:57:00;;;;;;;6.30;4.60;;;;;;;;;;5012365;28;20410;-83
2023/11/26 11:59:26;;;;;;;5.60;5.10;;;;;;;;;;5012352;28;20414;-83
2023/11/26 12:01:52;;;;;;;7.27;4.60;;;;;;;;;;5011874;28;20985;-82
2023/11/26 12:04:18;;;;;;;5.73;4.50;;;;;;;;;;5012832;28;20948;-83
2023/11/26 12:06:51;;;;;;;5.40;3.80;;;;;;;;;;4992724;28;20417;-82
2023/11/26 12:09:16;;;;;;;5.93;3.90;;;;;;;;;;4992470;28;20407;-82
2023/11/26 12:11:47;;;;;;;4.70;2.60;;;;;;;;;;4992518;28;20513;-82
2023/11/26 12:14:26;;;;;;;3.37;2.93;;;;;;;;;;4993402;28;20415;-82
2023/11/26 12:16:51;;;;;;;5.60;4.03;;;;;;;;;;4995888;28;20407;-82
2023/11/26 12:19:18;;;;;;;4.63;4.13;;;;;;;;;;4996064;28;20420;-82
2023/11/26 12:21:44;;;;;;;6.37;4.30;;;;;;;;;;5012618;28;20569;-81
2023/11/26 12:24:23;;;;;;;6.50;4.70;;;;;;;;;;5015814;28;20437;-82
2023/11/26 12:26:49;;;;;;;6.20;4.70;;;;;;;;;;5015639;28;20409;-82
2023/11/26 12:29:25;;;;;;;4.93;3.93;;;;;;;;;;5015560;28;20431;-81
2023/11/26 12:31:52;;;;;;;5.67;4.00;;;;;;;;;;5003490;28;20557;-82
2023/11/26 12:34:19;;;;;;;4.73;3.03;;;;;;;;;;5011388;28;20444;-83
2023/11/26 12:36:45;;;;;;;4.40;4.00;;;;;;;;;;4995636;28;20430;-80
2023/11/26 12:39:11;;;;;;;4.50;3.50;;;;;;;;;;4995617;28;20414;-82
2023/11/26 12:41:37;;;;;;;4.00;3.40;;;;;;;;;;5009383;28;20818;-82
2023/11/26 12:44:03;;;;;;;5.37;4.20;;;;;;;;;;5006125;28;20426;-80
2023/11/26 12:46:29;;;;;;;5.53;3.87;;;;;;;;;;4995197;28;20420;-81
2023/11/26 12:48:55;;;;;;;6.60;5.10;;;;;;;;;;4995568;28;20770;-80
2023/11/26 12:51:21;;;;;;;7.50;5.10;;;;;;;;;;4995546;28;20415;-81
2023/11/26 12:53:54;;;;;;;5.97;4.60;;;;;;;;;;5000278;28;20464;-80
2023/11/26 12:56:23;;;;;;;6.37;5.03;;;;;;;;;;5015063;28;20410;-82
2023/11/26 12:58:56;;;;;;;6.10;4.37;;;;;;;;;;5008068;28;20541;-82
2023/11/26 13:01:25;;;;;;;6.77;4.93;;;;;;;;;;4994849;28;20549;-82
2023/11/26 13:03:51;;;;;;;6.27;5.67;;;;;;;;;;4995283;28;20915;-82
2023/11/26 13:06:17;;;;;;;7.90;5.70;;;;;;;;;;4995300;28;20426;-82
2023/11/26 13:08:43;;;;;;;7.90;5.53;;;;;;;;;;4995203;28;20421;-83
2023/11/26 13:11:21;;;;;;;5.73;4.80;;;;;;;;;;4995268;28;20765;-82
2023/11/26 13:13:48;;;;;;;5.53;4.30;;;;;;;;;;4995203;28;20422;-82
2023/11/26 13:16:15;;;;;;;6.30;4.80;;;;;;;;;;4994771;28;20411;-83
2023/11/26 13:18:41;;;;;;;5.03;3.80;;;;;;;;;;4995077;28;20433;-82
2023/11/26 13:21:07;;;;;;;5.20;4.23;;;;;;;;;;4999436;28;20431;-83
2023/11/26 13:23:33;;;;;;;5.63;4.20;;;;;;;;;;5005886;28;20525;-82
2023/11/26 13:26:00;;;;;;;4.90;4.40;;;;;;;;;;5007163;28;20855;-82
2023/11/26 13:28:28;;;;;;;4.30;3.90;;;;;;;;;;5009745;28;20437;-82
2023/11/26 13:30:54;;;;;;;7.57;3.97;;;;;;;;;;5009321;28;20471;-83
2023/11/26 13:33:20;;;;;;;5.77;4.50;;;;;;;;;;4994824;28;20515;-82
2023/11/26 13:35:46;;;;;;;4.60;4.20;;;;;;;;;;4994698;28;20421;-83
2023/11/26 13:38:13;;;;;;;5.60;4.17;;;;;;;;;;4995336;28;20520;-83
2023/11/26 13:40:39;;;;;;;10.97;5.00;;;;;;;;;;5013875;28;20461;-83
2023/11/26 13:43:06;;;;;;;5.40;4.57;;;;;;;;;;5010515;28;20485;-83
2023/11/26 13:45:32;;;;;;;4.40;3.90;;;;;;;;;;5013548;28;20415;-83
2023/11/26 13:47:58;;;;;;;4.70;4.20;;;;;;;;;;5014111;28;20509;-83
2023/11/26 13:50:24;;;;;;;7.87;4.80;;;;;;;;;;5013857;28;20453;-83
2023/11/26 13:52:50;;;;;;;6.50;4.77;;;;;;;;;;5013933;28;20419;-83
2023/11/26 13:55:16;;;;;;;4.97;3.07;;;;;;;;;;5013722;28;20421;-83
2023/11/26 13:57:42;;;;;;;4.17;3.77;;;;;;;;;;5013930;28;20488;-83
2023/11/26 14:00:10;;;;;;;6.57;3.77;;;;;;;;;;5013561;28;20412;-84
2023/11/26 14:02:36;;;;;;;5.80;3.40;;;;;;;;;;5013689;28;20503;-82
2023/11/26 14:05:11;;;;;;;6.93;4.20;;;;;;;;;;5012507;28;20433;-83
2023/11/26 14:07:39;;;;;;;5.77;3.10;;;;;;;;;;5013821;28;20914;-83
2023/11/26 14:10:07;;;;;;;4.20;3.50;;;;;;;;;;5012961;28;20399;-82
2023/11/26 14:12:33;;;;;;;6.20;3.43;;;;;;;;;;5004748;28;20428;-83
2023/11/26 14:14:59;;;;;;;6.77;3.80;;;;;;;;;;4993685;28;20403;-83
2023/11/26 14:17:25;;;;;;;6.60;3.83;;;;;;;;;;5008381;28;20431;-83
2023/11/26 14:19:57;;;;;;;9.13;4.40;;;;;;;;;;5016261;28;20412;-83
2023/11/26 14:22:23;;;;;;;6.50;4.77;;;;;;;;;;5020739;28;20478;-83
2023/11/26 14:24:48;;;;;;;5.70;5.00;;;;;;;;;;5019063;28;20427;-83
2023/11/26 14:27:14;;;;;;;4.87;4.40;;;;;;;;;;5030239;28;20425;-83
2023/11/26 14:29:40;;;;;;;7.20;4.27;;;;;;;;;;5032263;28;20409;-83
2023/11/26 14:32:06;;;;;;;13.17;8.67;;;;;;;;;;5032064;28;20971;-83
2023/11/26 14:34:32;;;;;;;10.93;8.20;;;;;;;;;;5031732;28;20415;-84
2023/11/26 14:37:03;;;;;;;10.00;7.10;;;;;;;;;;5032881;28;20427;-84
2023/11/26 14:39:29;;;;;;;7.57;5.17;;;;;;;;;;5032985;28;20769;-84
2023/11/26 14:41:55;;;;;;;10.60;6.70;;;;;;;;;;5033105;28;20469;-84
2023/11/26 14:44:21;;;;;;;8.37;6.37;;;;;;;;;;5032269;28;20415;-83
2023/11/26 14:46:47;;;;;;;7.37;5.87;;;;;;;;;;5031938;28;20413;-84
2023/11/26 14:49:12;;;;;;;7.47;5.07;;;;;;;;;;5033167;28;20405;-84